Airfield :
LOGIN :

Register | Disclaimer

   EN    FR    IT 

 










Legend :    VFR   Marginal VFR   IFR   Intensive IFR   Very Intensive IFR
Visi :
Ceiling :
>= 8 km
>= 3000ft
5 to 8 km
1000 to 3000 ft
1500m to 5 km
500 to 1000 ft
800 to 1500m
200 to 500 ft
< 800m
< 200 ft
Symbols :   Thunderstorms  Fog  Heavy snow  Heavy precipitations  Wind > 20 kt
SIGMETs :     Misc.  Thunderstorms  Icing  Turbulence  Mountain Waves  Volcanic Ashes






- Airport Elevation : 313 ft
- IATA code : LEH


LFOH - Le Havre Octeville

CURRENT METAR :
  • 241000Z AUTO 11005KT 4100 BR OVC005 01/M00 Q1023 BECMG 7000 NSW BKN012

EXPIRED METARs :
  • 240930Z AUTO 14006KT 110V180 3500 BR OVC004 01/M00 Q1023 BECMG 7000 NSW BKN012
  • 240900Z AUTO 09004KT 060V130 3300 BR OVC004 01/M00 Q1023 BECMG 7000 NSW BKN012
  • 240830Z AUTO 09005KT 3100 BR OVC004 01/M00 Q1023 BECMG 7000 NSW BKN012
  • 240800Z AUTO 11006KT 3200 BR OVC004 01/M00 Q1023 BECMG OVC005
  • 240730Z AUTO 10006KT 4200 BR OVC005 01/M00 Q1023 NOSIG

TAF TAF LFOH
Valid from the 24 at 06:00 until the 25 at 06:00 UTC


240500Z 2406/2506 09005KT 4000 BR OVC005
BECMG 2410/2413 7000 NSW BKN012
PROB40 2414/2418 NSC
BECMG 2418/2421 OVC007
TEMPO 2422/2506 4000 BR OVC003
ATIS : +33 2 35 54 64 93



MET'MAP, your aeronautical weather chart ! - Copyright ORBIFLY December 2007 - Disclaimer

ORBIFLY MET'MAP TEAM :

Programming & Development : Alexandra Zaïnal
Concept & original design : Baudouin d'Aumeries
Assistance for programming : Marc-Olivier Méhu
Technical & hardware support : Manuel Goepfert

Contact : metmap@orbifly.com




SOURCES & CREDITS :

   NOAA